Terminal Aerodrome Forecast
Issued by NWS Chicago, IL

Home | Current Version | Previous Version | Text Only | Print | Product List | Glossary On
Versions: 1 2 3 4 5 6 7 8 9 10 11 12 13 14 15 16 17 18 19 20 21 22 23 24 25 26 27 28 29 30 31 32 33 34 35 36
000
FTUS43 KLOT 220300 AAA
TAFRFD
TAF AMD
KRFD 220312Z 2203/2224 15011KT P6SM OVC035
     FM221600 12010KT 5SM -RASN BR OVC020
     FM221800 12012KT 5SM -RA BR OVC015
     FM222000 12013KT 3SM RA BR OVC007=

USA.gov is the U.S. government's official web portal to all federal, state and local government web resources and services.